Time;durP1;ratioP1;P1;durP2;ratioP2;P2;SDS_P1;SDS_P2;PMS_P1;PMS_P2;Temp;Humidity;BMP_temperature;BMP_pressure;BME280_temperature;BME280_humidity;BME280_pressure;Samples;Min_cycle;Max_cycle;Signal;HPM_P1;HPM_P2
2023/08/04 00:00:20;;;;;;;1.38;0.55;;;16.50;99.90;;;;;;5072284;28;20058;-64
2023/08/04 00:02:48;;;;;;;1.83;0.60;;;16.50;99.90;;;;;;5075039;28;20132;-64
2023/08/04 00:05:20;;;;;;;1.80;0.63;;;16.60;99.90;;;;;;5087845;28;20040;-64
2023/08/04 00:07:52;;;;;;;1.65;0.60;;;16.60;99.90;;;;;;5089052;28;20044;-64
2023/08/04 00:10:24;;;;;;;1.90;0.60;;;16.70;99.90;;;;;;5086679;28;20133;-64
2023/08/04 00:12:56;;;;;;;0.95;0.60;;;16.70;99.90;;;;;;5086115;28;20046;-64
2023/08/04 00:15:28;;;;;;;3.55;1.15;;;16.70;99.90;;;;;;5067642;28;20045;-64
2023/08/04 00:17:58;;;;;;;3.08;0.80;;;16.60;99.90;;;;;;5079643;28;20046;-64
2023/08/04 00:20:30;;;;;;;1.90;0.68;;;16.60;99.90;;;;;;5059661;28;20040;-64
2023/08/04 00:23:02;;;;;;;3.33;0.93;;;16.60;99.90;;;;;;5070359;28;20039;-64
2023/08/04 00:25:34;;;;;;;3.13;0.77;;;16.60;99.90;;;;;;5076411;28;20044;-64
2023/08/04 00:28:05;;;;;;;2.13;0.70;;;16.60;99.90;;;;;;5070720;28;20424;-64
2023/08/04 00:30:37;;;;;;;2.03;1.30;;;16.60;99.90;;;;;;5084032;28;20044;-64
2023/08/04 00:33:09;;;;;;;2.78;0.80;;;16.50;99.90;;;;;;5069555;28;20054;-64
2023/08/04 00:35:36;;;;;;;0.80;0.68;;;16.40;99.90;;;;;;5087364;28;20567;-64
2023/08/04 00:38:08;;;;;;;3.53;0.93;;;16.40;99.90;;;;;;5088108;28;20085;-64
2023/08/04 00:40:40;;;;;;;1.52;0.80;;;16.50;99.90;;;;;;5055916;28;20037;-64
2023/08/04 00:43:12;;;;;;;3.75;0.80;;;16.50;99.90;;;;;;5070711;28;20043;-63
2023/08/04 00:45:44;;;;;;;1.65;0.70;;;16.50;99.90;;;;;;5078251;28;20448;-64
2023/08/04 00:48:16;;;;;;;1.65;0.80;;;16.60;99.90;;;;;;5072085;28;20051;-64
2023/08/04 00:50:48;;;;;;;2.13;0.80;;;16.50;99.90;;;;;;5073193;28;20056;-64
2023/08/04 00:53:20;;;;;;;1.92;0.98;;;16.40;99.90;;;;;;5070281;28;20542;-64
2023/08/04 00:55:52;;;;;;;2.97;0.98;;;16.40;99.90;;;;;;5073787;28;20040;-64
2023/08/04 00:58:24;;;;;;;2.25;0.68;;;16.30;99.90;;;;;;5087734;28;20036;-64
2023/08/04 01:00:56;;;;;;;1.88;1.10;;;16.30;99.90;;;;;;5071016;28;20070;-63
2023/08/04 01:03:24;;;;;;;1.17;0.70;;;16.30;99.90;;;;;;5070315;28;20068;-64
2023/08/04 01:06:17;;;;;;;2.60;0.85;;;16.40;99.90;;;;;;5072215;28;20048;-63
2023/08/04 01:09:08;;;;;;;2.38;0.90;;;16.40;99.90;;;;;;5060781;28;20049;-64
2023/08/04 01:11:51;;;;;;;1.10;0.80;;;16.40;99.90;;;;;;5060340;28;20039;-64
2023/08/04 01:14:25;;;;;;;1.95;0.98;;;16.40;99.90;;;;;;5055466;28;20036;-64
2023/08/04 01:16:56;;;;;;;4.30;1.30;;;16.40;99.90;;;;;;5052884;28;20040;-64
2023/08/04 01:19:28;;;;;;;3.00;0.90;;;16.40;99.90;;;;;;5083430;28;20041;-64
2023/08/04 01:22:00;;;;;;;1.67;1.02;;;16.30;99.90;;;;;;5086709;28;20036;-64
2023/08/04 01:24:32;;;;;;;2.65;0.93;;;16.30;99.90;;;;;;5076645;28;20568;-64
2023/08/04 01:27:05;;;;;;;1.77;1.10;;;16.30;99.90;;;;;;5080150;28;20052;-64
2023/08/04 01:29:37;;;;;;;2.83;0.95;;;16.30;99.90;;;;;;5068691;28;20066;-64
2023/08/04 01:32:09;;;;;;;2.70;1.15;;;16.20;99.90;;;;;;5060669;28;20044;-63
2023/08/04 01:34:44;;;;;;;5.07;1.10;;;16.20;99.90;;;;;;5067501;28;20036;-63
2023/08/04 01:37:16;;;;;;;3.67;1.55;;;16.20;99.90;;;;;;5084788;28;20131;-64
2023/08/04 01:39:48;;;;;;;4.35;1.05;;;16.30;99.90;;;;;;5078506;28;20040;-64
2023/08/04 01:42:20;;;;;;;1.73;0.98;;;16.20;99.90;;;;;;5085055;28;20050;-64
2023/08/04 01:44:52;;;;;;;1.52;0.88;;;16.20;99.90;;;;;;5077479;28;20128;-64
2023/08/04 01:47:24;;;;;;;3.50;1.23;;;16.20;99.90;;;;;;5079482;28;20043;-64
2023/08/04 01:49:56;;;;;;;1.85;1.10;;;16.20;99.90;;;;;;5092295;28;20478;-64
2023/08/04 01:52:27;;;;;;;2.50;0.80;;;16.20;99.90;;;;;;5073352;28;20032;-64
2023/08/04 01:54:59;;;;;;;2.20;0.95;;;16.20;99.90;;;;;;5079028;28;20043;-64
2023/08/04 01:57:26;;;;;;;2.33;0.95;;;16.20;99.90;;;;;;5078135;28;20086;-64
2023/08/04 01:59:58;;;;;;;1.50;0.80;;;16.20;99.90;;;;;;5079951;28;20526;-64
2023/08/04 02:02:37;;;;;;;4.57;1.05;;;16.20;99.90;;;;;;5091965;28;20033;-64
2023/08/04 02:05:09;;;;;;;3.53;1.05;;;16.30;99.90;;;;;;5059740;28;20083;-64
2023/08/04 02:07:41;;;;;;;1.33;0.98;;;16.20;99.90;;;;;;5077436;28;20040;-64
2023/08/04 02:10:13;;;;;;;2.90;0.98;;;16.20;99.90;;;;;;5074054;28;20033;-64
2023/08/04 02:12:41;;;;;;;3.20;0.98;;;16.20;99.90;;;;;;5090619;28;20053;-64
2023/08/04 02:15:13;;;;;;;2.78;0.90;;;16.20;99.90;;;;;;5077555;28;20042;-64
2023/08/04 02:17:45;;;;;;;2.85;1.23;;;16.20;99.90;;;;;;5088108;28;20072;-64
2023/08/04 02:20:17;;;;;;;2.00;1.02;;;16.10;99.90;;;;;;5076593;28;20036;-64
2023/08/04 02:22:49;;;;;;;4.22;1.10;;;16.10;99.90;;;;;;5086303;28;20047;-64
2023/08/04 02:25:21;;;;;;;1.95;1.00;;;16.10;99.90;;;;;;5088043;28;20036;-64
2023/08/04 02:27:52;;;;;;;3.55;1.02;;;16.10;99.90;;;;;;5088462;28;20579;-64
2023/08/04 02:30:24;;;;;;;1.80;0.95;;;16.10;99.90;;;;;;5076752;28;20040;-64
2023/08/04 02:32:56;;;;;;;2.20;0.90;;;16.10;99.90;;;;;;5089935;28;20031;-63
2023/08/04 02:35:23;;;;;;;2.67;0.90;;;16.10;99.90;;;;;;5073095;28;20115;-64
2023/08/04 02:37:54;;;;;;;2.70;0.95;;;16.10;99.90;;;;;;5069127;28;20039;-63
2023/08/04 02:40:26;;;;;;;3.13;1.45;;;16.10;99.90;;;;;;5086779;28;20416;-64
2023/08/04 02:42:59;;;;;;;;;;;16.10;99.90;;;;;;5080896;28;20062;-64
2023/08/04 02:45:31;;;;;;;4.63;0.98;;;16.10;99.90;;;;;;5085968;28;19951;-64
2023/08/04 02:48:03;;;;;;;3.03;1.92;;;16.10;99.90;;;;;;5085292;28;20793;-64
2023/08/04 02:50:35;;;;;;;1.73;1.00;;;16.00;99.90;;;;;;5073569;28;20052;-62
2023/08/04 02:53:07;;;;;;;2.22;1.00;;;16.00;99.90;;;;;;5073173;28;20047;-66
2023/08/04 02:55:39;;;;;;;1.20;0.80;;;15.90;99.90;;;;;;5062238;28;20044;-64
2023/08/04 02:58:11;;;;;;;1.23;0.85;;;15.90;99.90;;;;;;5075384;28;20033;-64
2023/08/04 03:00:43;;;;;;;8.20;1.65;;;15.90;99.90;;;;;;5082684;28;20530;-64
2023/08/04 03:03:15;;;;;;;2.60;0.93;;;15.90;99.90;;;;;;5075477;28;20040;-64
2023/08/04 03:05:47;;;;;;;2.60;1.00;;;15.80;99.90;;;;;;5085832;28;20044;-64
2023/08/04 03:08:18;;;;;;;1.50;0.80;;;15.80;99.90;;;;;;5069994;28;20463;-63
2023/08/04 03:10:50;;;;;;;3.97;2.22;;;15.80;99.90;;;;;;5088368;28;20044;-64
2023/08/04 03:13:17;;;;;;;4.45;1.00;;;15.80;99.90;;;;;;5084454;28;20447;-64
2023/08/04 03:15:44;;;;;;;2.15;0.80;;;15.70;99.90;;;;;;5082530;28;20052;-64
2023/08/04 03:18:16;;;;;;;1.88;0.98;;;15.70;99.90;;;;;;5083068;28;20036;-64
2023/08/04 03:20:48;;;;;;;3.30;0.85;;;15.70;99.90;;;;;;5071783;28;20535;-64
2023/08/04 03:23:21;;;;;;;2.75;1.05;;;15.80;99.90;;;;;;5080407;28;20507;-64
2023/08/04 03:25:53;;;;;;;;;;;15.70;99.90;;;;;;5075078;28;20420;-64
2023/08/04 03:28:25;;;;;;;2.30;1.00;;;15.70;99.90;;;;;;5073441;28;19925;-64
2023/08/04 03:30:56;;;;;;;2.10;1.52;;;15.70;99.90;;;;;;5086797;28;20040;-62
2023/08/04 03:33:28;;;;;;;2.28;0.90;;;15.60;99.90;;;;;;5073654;28;20531;-64
2023/08/04 03:36:00;;;;;;;2.33;0.90;;;15.60;99.90;;;;;;5086834;28;20028;-63
2023/08/04 03:38:32;;;;;;;1.88;0.95;;;15.50;99.90;;;;;;5080830;28;20040;-64
2023/08/04 03:41:04;;;;;;;2.63;1.10;;;15.50;99.90;;;;;;5077924;28;20032;-63
2023/08/04 03:43:35;;;;;;;1.30;1.00;;;15.40;99.90;;;;;;5082915;28;20036;-63
2023/08/04 03:46:07;;;;;;;1.98;0.90;;;15.40;99.90;;;;;;5072150;28;20041;-64
2023/08/04 03:48:39;;;;;;;5.22;1.13;;;15.40;99.90;;;;;;5086789;28;20052;-64
2023/08/04 03:51:11;;;;;;;3.95;1.52;;;15.40;99.90;;;;;;5082786;28;20036;-64
2023/08/04 03:53:43;;;;;;;1.80;1.17;;;15.40;99.90;;;;;;5070001;28;20054;-64
2023/08/04 03:56:15;;;;;;;2.42;1.00;;;15.40;99.90;;;;;;5085234;28;20127;-64
2023/08/04 03:58:47;;;;;;;1.55;0.75;;;15.30;99.90;;;;;;5087459;28;20040;-64
2023/08/04 04:01:19;;;;;;;2.42;0.98;;;15.30;99.90;;;;;;5082209;28;20127;-64
2023/08/04 04:03:50;;;;;;;1.05;0.73;;;15.30;99.90;;;;;;5056667;28;20520;-64
2023/08/04 04:06:22;;;;;;;4.78;0.82;;;15.40;99.90;;;;;;5077480;28;20408;-64
2023/08/04 04:08:54;;;;;;;2.22;0.80;;;15.40;99.90;;;;;;5076821;28;20056;-63
2023/08/04 04:11:26;;;;;;;1.75;0.93;;;15.30;99.90;;;;;;5062763;28;20408;-64
2023/08/04 04:13:57;;;;;;;1.73;0.90;;;15.40;99.90;;;;;;5074428;28;20041;-64
2023/08/04 04:16:30;;;;;;;2.65;0.90;;;15.40;99.90;;;;;;5083357;28;20059;-64
2023/08/04 04:19:02;;;;;;;1.40;0.80;;;15.30;99.90;;;;;;5089047;28;20389;-64
2023/08/04 04:21:34;;;;;;;2.10;1.00;;;15.30;99.90;;;;;;5088277;28;20028;-64
2023/08/04 04:24:05;;;;;;;2.47;0.85;;;15.20;99.90;;;;;;5081993;28;20032;-64
2023/08/04 04:26:37;;;;;;;2.05;0.90;;;15.20;99.90;;;;;;5078883;28;20052;-64
2023/08/04 04:29:09;;;;;;;1.73;1.10;;;15.20;99.90;;;;;;5072531;28;20040;-64
2023/08/04 04:31:41;;;;;;;2.28;0.80;;;15.20;99.90;;;;;;5074485;28;20051;-64
2023/08/04 04:34:12;;;;;;;1.90;1.00;;;15.30;99.90;;;;;;5084932;28;20044;-64
2023/08/04 04:36:44;;;;;;;1.92;1.02;;;15.20;99.90;;;;;;5083222;28;20491;-64
2023/08/04 04:39:16;;;;;;;1.80;0.98;;;15.20;99.90;;;;;;5066308;28;20040;-63
2023/08/04 04:41:48;;;;;;;4.57;1.17;;;15.30;99.90;;;;;;5080162;28;20040;-64
2023/08/04 04:44:15;;;;;;;1.75;0.80;;;15.30;99.90;;;;;;5085475;28;20036;-64
2023/08/04 04:46:42;;;;;;;3.55;1.15;;;15.40;99.90;;;;;;5087125;28;20414;-63
2023/08/04 04:49:16;;;;;;;2.53;0.82;;;15.40;99.90;;;;;;5077749;22;20045;-65
2023/08/04 04:51:48;;;;;;;2.72;1.23;;;15.40;99.90;;;;;;5061844;28;20124;-65
2023/08/04 04:54:20;;;;;;;1.63;0.73;;;15.40;99.90;;;;;;5061297;28;20033;-64
2023/08/04 04:56:52;;;;;;;3.88;1.20;;;15.40;99.90;;;;;;5057536;28;20127;-64
2023/08/04 04:59:24;;;;;;;2.45;0.80;;;15.30;99.90;;;;;;5045695;28;20131;-64
2023/08/04 05:01:56;;;;;;;3.38;1.00;;;15.30;99.90;;;;;;5061682;28;20123;-64
2023/08/04 05:04:22;;;;;;;1.55;1.10;;;15.40;99.90;;;;;;5063363;28;20032;-64
2023/08/04 05:06:54;;;;;;;1.35;0.70;;;15.40;99.90;;;;;;5053210;28;20592;-64
2023/08/04 05:09:26;;;;;;;0.98;0.80;;;15.40;99.90;;;;;;5050562;28;20123;-65
2023/08/04 05:11:58;;;;;;;1.10;0.73;;;15.40;99.90;;;;;;5059492;28;20127;-64
2023/08/04 05:14:25;;;;;;;1.70;0.80;;;15.50;99.90;;;;;;5056738;28;20043;-64
2023/08/04 05:16:56;;;;;;;2.30;1.13;;;15.60;99.90;;;;;;5051157;28;20041;-64
2023/08/04 05:19:28;;;;;;;1.15;1.02;;;15.60;99.90;;;;;;5056530;28;20048;-64
2023/08/04 05:21:55;;;;;;;3.53;1.15;;;15.60;99.90;;;;;;5064275;28;20127;-64
2023/08/04 05:24:27;;;;;;;3.85;0.90;;;15.60;99.90;;;;;;5050362;28;20128;-64
2023/08/04 05:26:59;;;;;;;4.22;1.17;;;15.60;99.90;;;;;;5059258;28;20120;-64
2023/08/04 05:29:30;;;;;;;4.20;0.93;;;15.50;99.90;;;;;;5051635;28;20058;-65
2023/08/04 05:32:02;;;;;;;2.10;1.35;;;15.50;99.90;;;;;;5050101;28;20095;-64
2023/08/04 05:34:34;;;;;;;2.22;0.98;;;15.50;99.90;;;;;;5036901;28;20049;-64
2023/08/04 05:37:01;;;;;;;1.90;0.82;;;15.50;99.90;;;;;;5051011;28;20125;-64
2023/08/04 05:39:28;;;;;;;1.63;0.70;;;15.40;99.90;;;;;;5049540;28;20064;-64
2023/08/04 05:41:59;;;;;;;2.28;1.10;;;15.40;99.90;;;;;;5059842;28;20049;-65
2023/08/04 05:44:31;;;;;;;2.65;1.13;;;15.40;99.90;;;;;;5043420;28;20033;-64
2023/08/04 05:47:03;;;;;;;2.03;1.10;;;15.40;99.90;;;;;;5064649;28;20052;-65
2023/08/04 05:49:35;;;;;;;2.22;0.80;;;15.40;99.90;;;;;;5059329;28;20037;-65
2023/08/04 05:52:07;;;;;;;3.67;1.35;;;15.40;99.90;;;;;;5056602;28;20501;-65
2023/08/04 05:54:39;;;;;;;4.47;1.42;;;15.40;99.90;;;;;;5059598;28;20040;-64
2023/08/04 05:57:11;;;;;;;1.65;0.70;;;15.50;99.90;;;;;;5065428;28;20083;-64
2023/08/04 05:59:42;;;;;;;4.15;1.02;;;15.50;99.90;;;;;;5057955;28;20044;-64
2023/08/04 06:02:15;;;;;;;2.47;1.00;;;15.60;99.90;;;;;;5057499;28;20431;-64
2023/08/04 06:04:47;;;;;;;3.88;0.93;;;15.60;99.90;;;;;;5043942;28;20055;-64
2023/08/04 06:07:19;;;;;;;3.50;1.05;;;15.70;99.90;;;;;;5061055;28;20047;-64
2023/08/04 06:09:51;;;;;;;2.70;1.08;;;15.70;99.90;;;;;;5052117;28;20052;-65
2023/08/04 06:12:22;;;;;;;5.55;1.27;;;15.70;99.90;;;;;;5054963;28;20119;-65
2023/08/04 06:14:50;;;;;;;1.35;0.95;;;15.60;99.90;;;;;;5060842;28;20041;-64
2023/08/04 06:17:21;;;;;;;2.05;0.80;;;15.60;99.90;;;;;;5052522;28;20036;-65
2023/08/04 06:19:49;;;;;;;4.85;0.85;;;15.60;99.90;;;;;;5069541;28;20584;-64
2023/08/04 06:22:20;;;;;;;1.15;0.75;;;15.70;99.90;;;;;;5054779;28;20401;-64
2023/08/04 06:24:52;;;;;;;1.33;0.70;;;15.80;99.90;;;;;;5070400;28;20539;-69
2023/08/04 06:27:24;;;;;;;3.55;0.90;;;15.90;99.90;;;;;;5067409;28;20040;-64
2023/08/04 06:29:58;;;;;;;2.60;1.00;;;16.00;99.90;;;;;;5037318;28;20465;-64
2023/08/04 06:32:30;;;;;;;2.10;1.08;;;16.00;99.90;;;;;;5063613;28;20090;-65
2023/08/04 06:35:02;;;;;;;2.28;0.90;;;16.00;99.90;;;;;;5048765;28;20056;-65
2023/08/04 06:37:34;;;;;;;1.88;1.10;;;16.10;99.90;;;;;;5059402;28;20398;-64
2023/08/04 06:40:01;;;;;;;2.10;1.20;;;16.10;99.90;;;;;;5059565;28;20041;-64
2023/08/04 06:42:33;;;;;;;2.17;1.10;;;16.10;99.90;;;;;;5064204;28;20079;-65
2023/08/04 06:45:01;;;;;;;2.60;0.90;;;16.10;99.90;;;;;;5066967;28;20033;-64
2023/08/04 06:47:33;;;;;;;1.63;0.60;;;16.20;99.90;;;;;;5063347;28;20040;-64
2023/08/04 06:50:05;;;;;;;1.88;1.08;;;16.20;99.90;;;;;;5054874;28;20382;-64
2023/08/04 06:52:37;;;;;;;2.55;1.15;;;16.20;99.90;;;;;;5044353;28;20412;-64
2023/08/04 06:55:09;;;;;;;1.60;0.90;;;16.30;99.90;;;;;;5054781;28;20055;-64
2023/08/04 06:57:36;;;;;;;1.85;0.90;;;16.30;99.90;;;;;;5052523;28;20064;-64
2023/08/04 07:00:10;;;;;;;1.73;0.70;;;16.40;99.90;;;;;;5062092;28;20051;-65
2023/08/04 07:02:37;;;;;;;1.52;0.60;;;16.40;99.90;;;;;;5057404;28;20124;-64
2023/08/04 07:05:09;;;;;;;0.65;0.55;;;16.40;99.90;;;;;;5052341;28;20417;-64
2023/08/04 07:07:42;;;;;;;1.70;0.80;;;16.40;99.90;;;;;;5067299;28;20035;-64
2023/08/04 07:10:14;;;;;;;1.38;0.80;;;16.40;99.90;;;;;;5067954;28;20051;-64
2023/08/04 07:12:46;;;;;;;1.45;1.02;;;16.40;99.90;;;;;;5063944;28;20072;-64
2023/08/04 07:15:18;;;;;;;1.92;0.85;;;16.50;99.90;;;;;;5064129;28;20459;-65
2023/08/04 07:17:49;;;;;;;3.10;0.65;;;16.60;99.90;;;;;;5030561;28;20464;-64
2023/08/04 07:20:16;;;;;;;1.23;0.68;;;16.60;99.90;;;;;;5063564;28;20400;-64
2023/08/04 07:22:48;;;;;;;2.95;0.80;;;16.70;99.90;;;;;;5060592;28;20037;-64
2023/08/04 07:25:20;;;;;;;1.58;0.80;;;16.70;99.90;;;;;;5045059;28;20106;-64
2023/08/04 07:27:47;;;;;;;2.35;0.45;;;16.70;99.90;;;;;;5058234;28;20044;-64
2023/08/04 07:30:15;;;;;;;1.25;0.77;;;16.80;99.90;;;;;;5058055;28;20074;-65
2023/08/04 07:32:42;;;;;;;1.63;0.80;;;16.80;99.90;;;;;;5054013;28;20033;-64
2023/08/04 07:35:14;;;;;;;1.70;0.68;;;16.90;99.90;;;;;;5065025;28;20048;-65
2023/08/04 07:37:41;;;;;;;1.42;0.68;;;16.90;99.90;;;;;;5064345;28;20037;-64
2023/08/04 07:40:14;;;;;;;1.77;0.70;;;16.90;99.90;;;;;;5065971;28;20028;-64
2023/08/04 07:42:45;;;;;;;1.75;0.73;;;17.00;99.90;;;;;;5065733;28;20543;-64
2023/08/04 07:45:17;;;;;;;1.13;0.70;;;16.90;99.90;;;;;;5069727;28;20036;-64
2023/08/04 07:47:49;;;;;;;1.42;0.60;;;17.00;99.90;;;;;;5067229;28;20068;-65
2023/08/04 07:50:21;;;;;;;1.25;0.65;;;17.10;99.90;;;;;;5062328;28;20091;-64
2023/08/04 07:52:54;;;;;;;1.60;0.60;;;17.20;99.90;;;;;;5065536;28;20055;-64
2023/08/04 07:55:26;;;;;;;0.93;0.60;;;17.20;99.90;;;;;;5047992;28;20124;-64
2023/08/04 07:57:58;;;;;;;1.77;0.60;;;17.20;99.90;;;;;;5053211;28;20055;-65
2023/08/04 08:00:24;;;;;;;3.67;1.20;;;17.30;99.90;;;;;;5053684;28;20033;-65
2023/08/04 08:02:51;;;;;;;0.73;0.60;;;17.40;99.90;;;;;;5066642;28;20064;-64
2023/08/04 08:05:23;;;;;;;0.73;0.50;;;17.30;99.90;;;;;;5064237;28;20037;-65
2023/08/04 08:07:55;;;;;;;2.05;0.55;;;17.40;99.90;;;;;;5043321;28;20093;-64
2023/08/04 08:10:27;;;;;;;0.98;0.60;;;17.50;99.90;;;;;;5063176;28;20047;-65
2023/08/04 08:13:01;;;;;;;0.90;0.50;;;17.60;99.90;;;;;;5054557;28;20055;-64
2023/08/04 08:15:33;;;;;;;0.82;0.43;;;17.70;99.90;;;;;;5054750;28;20041;-64
2023/08/04 08:18:00;;;;;;;1.50;0.60;;;17.80;99.90;;;;;;5043272;28;20036;-64
2023/08/04 08:20:32;;;;;;;0.95;0.60;;;17.90;99.90;;;;;;5054067;28;20128;-65
2023/08/04 08:23:04;;;;;;;0.77;0.60;;;18.00;99.90;;;;;;5053279;28;20041;-65
2023/08/04 08:25:37;;;;;;;1.58;0.60;;;18.10;99.90;;;;;;5064122;28;20041;-64
2023/08/04 08:28:08;;;;;;;0.80;0.60;;;18.20;99.90;;;;;;5067541;28;20040;-64
2023/08/04 08:30:40;;;;;;;1.63;0.60;;;18.20;99.90;;;;;;5063547;28;20115;-65
2023/08/04 08:33:12;;;;;;;0.50;0.40;;;18.20;99.90;;;;;;5067214;28;20037;-64
2023/08/04 08:35:44;;;;;;;2.60;0.57;;;18.30;99.90;;;;;;5055796;28;21921;-65
2023/08/04 08:38:16;;;;;;;0.65;0.43;;;18.30;99.90;;;;;;5058634;28;20264;-64
2023/08/04 08:40:48;;;;;;;1.10;0.60;;;18.40;99.90;;;;;;5065298;28;20044;-65
2023/08/04 08:43:20;;;;;;;1.02;0.60;;;18.50;99.90;;;;;;5052303;28;20455;-65
2023/08/04 08:45:55;;;;;;;1.05;0.43;;;18.60;99.90;;;;;;5067891;28;20467;-64
2023/08/04 08:48:29;;;;;;;1.83;0.50;;;18.80;99.90;;;;;;5065908;28;20036;-65
2023/08/04 08:51:02;;;;;;;1.05;0.57;;;18.90;99.90;;;;;;5066322;28;20045;-65
2023/08/04 08:53:36;;;;;;;2.88;0.50;;;19.10;99.90;;;;;;5059741;28;20040;-65
2023/08/04 08:56:04;;;;;;;0.50;0.45;;;19.20;99.90;;;;;;5061367;28;20033;-64
2023/08/04 08:58:37;;;;;;;1.17;0.50;;;19.30;99.90;;;;;;5064065;28;20029;-64
2023/08/04 09:01:09;;;;;;;0.90;0.60;;;19.30;99.90;;;;;;5068021;28;20037;-65
2023/08/04 09:03:42;;;;;;;1.13;0.60;;;19.30;99.90;;;;;;5051443;28;20033;-64
2023/08/04 09:06:14;;;;;;;1.92;0.40;;;19.50;99.90;;;;;;5066240;28;20283;-64
2023/08/04 09:08:46;;;;;;;1.30;0.50;;;19.50;99.90;;;;;;5064214;28;20063;-64
2023/08/04 09:11:13;;;;;;;0.80;0.60;;;19.60;99.90;;;;;;5064187;28;20504;-64
2023/08/04 09:13:45;;;;;;;1.38;0.47;;;19.70;99.90;;;;;;5065689;28;20049;-64
2023/08/04 09:16:33;;;;;;;1.20;0.50;;;19.80;99.90;;;;;;5052473;28;20119;-65
2023/08/04 09:19:07;;;;;;;1.13;0.70;;;19.90;99.90;;;;;;5060073;28;20040;-64
2023/08/04 09:21:35;;;;;;;1.27;0.77;;;20.10;99.90;;;;;;5059707;28;20393;-64
2023/08/04 09:24:11;;;;;;;1.10;0.63;;;20.20;99.90;;;;;;5066300;28;20382;-65
2023/08/04 09:26:46;;;;;;;0.47;0.47;;;20.30;99.90;;;;;;5062771;28;20504;-64
2023/08/04 09:29:18;;;;;;;0.95;0.50;;;20.40;99.90;;;;;;5036029;28;20056;-64
2023/08/04 09:31:49;;;;;;;1.55;0.70;;;20.60;99.90;;;;;;5028456;28;20063;-64
2023/08/04 09:34:21;;;;;;;1.27;0.50;;;20.80;99.90;;;;;;5062121;28;20503;-64
2023/08/04 09:36:56;;;;;;;3.35;0.63;;;20.80;99.90;;;;;;5065396;28;20040;-64
2023/08/04 09:39:29;;;;;;;0.45;0.40;;;21.00;99.90;;;;;;5062095;28;20037;-64
2023/08/04 09:42:01;;;;;;;1.13;0.52;;;20.90;99.90;;;;;;5049277;28;20037;-64
2023/08/04 09:44:35;;;;;;;1.00;0.40;;;20.80;99.90;;;;;;5050726;28;20176;-64
2023/08/04 09:47:10;;;;;;;0.60;0.40;;;20.80;99.90;;;;;;5066441;28;20123;-64
2023/08/04 09:49:42;;;;;;;1.48;0.43;;;20.80;99.90;;;;;;5061582;28;20048;-64
2023/08/04 09:52:30;;;;;;;1.10;0.57;;;20.90;99.90;;;;;;5050754;28;20040;-64
2023/08/04 09:55:02;;;;;;;0.63;0.50;;;21.20;99.90;;;;;;5064554;28;20135;-64
2023/08/04 09:57:29;;;;;;;1.45;0.50;;;21.30;99.90;;;;;;5061886;28;20037;-64
2023/08/04 10:00:01;;;;;;;0.40;0.30;;;21.20;99.90;;;;;;5050990;28;20420;-64
2023/08/04 10:02:35;;;;;;;1.58;0.90;;;21.30;99.90;;;;;;5058264;28;20035;-64
2023/08/04 10:05:09;;;;;;;0.60;0.50;;;21.40;99.90;;;;;;5064622;28;20057;-64
2023/08/04 10:07:37;;;;;;;2.67;0.40;;;21.40;99.90;;;;;;5066371;28;20390;-64
2023/08/04 10:10:09;;;;;;;1.15;0.75;;;21.50;99.90;;;;;;5065160;28;20048;-64
2023/08/04 10:12:41;;;;;;;3.17;0.60;;;21.40;99.90;;;;;;5048008;28;20061;-64
2023/08/04 10:15:13;;;;;;;1.33;0.50;;;21.30;99.90;;;;;;5067769;28;20079;-64
2023/08/04 10:17:46;;;;;;;0.85;0.60;;;21.30;99.90;;;;;;5070721;28;20041;-64
2023/08/04 10:20:19;;;;;;;0.40;0.30;;;21.50;99.90;;;;;;5065419;28;20044;-64
2023/08/04 10:22:52;;;;;;;0.90;0.47;;;21.70;99.90;;;;;;5068401;28;20036;-65
2023/08/04 10:25:24;;;;;;;0.70;0.50;;;21.90;99.90;;;;;;5055821;28;20345;-65
2023/08/04 10:27:57;;;;;;;1.77;0.70;;;21.90;99.90;;;;;;5051268;28;20069;-65
2023/08/04 10:30:29;;;;;;;0.57;0.30;;;22.00;99.90;;;;;;5061723;28;20135;-65
2023/08/04 10:33:10;;;;;;;1.48;0.40;;;22.00;99.90;;;;;;5060883;28;20065;-64
2023/08/04 10:36:08;;;;;;;1.45;0.47;;;22.00;99.90;;;;;;5069020;28;20045;-64
2023/08/04 10:38:49;;;;;;;1.52;0.60;;;22.30;99.90;;;;;;5049959;28;20032;-65
2023/08/04 10:41:21;;;;;;;0.70;0.50;;;22.50;99.90;;;;;;5071161;28;20033;-65
2023/08/04 10:44:02;;;;;;;0.73;0.40;;;22.50;99.90;;;;;;5052067;28;20123;-65
2023/08/04 10:46:34;;;;;;;0.75;0.43;;;22.50;99.90;;;;;;5053091;28;20032;-64
2023/08/04 10:49:06;;;;;;;0.70;0.50;;;22.50;99.90;;;;;;5065344;28;20528;-64
2023/08/04 10:51:38;;;;;;;0.63;0.60;;;22.60;99.90;;;;;;5051613;28;20452;-64
2023/08/04 10:54:10;;;;;;;2.78;0.50;;;22.70;99.90;;;;;;5054024;28;20750;-65
2023/08/04 10:56:46;;;;;;;0.77;0.60;;;22.80;99.90;;;;;;5053382;28;20028;-64
2023/08/04 10:59:18;;;;;;;2.00;0.50;;;22.70;99.90;;;;;;5067490;28;20134;-64
2023/08/04 11:01:50;;;;;;;0.75;0.40;;;22.60;99.90;;;;;;5046976;28;20044;-64
2023/08/04 11:04:21;;;;;;;1.40;0.40;;;22.40;99.90;;;;;;5064711;28;20417;-64
2023/08/04 11:06:57;;;;;;;1.42;1.33;;;22.30;99.90;;;;;;5086198;22;20558;-63
2023/08/04 11:09:31;;;;;;;0.35;0.30;;;22.30;99.90;;;;;;5096355;28;20043;-63
2023/08/04 11:12:06;;;;;;;0.80;0.55;;;22.10;99.90;;;;;;5084757;28;20067;-63
2023/08/04 11:14:38;;;;;;;2.47;0.80;;;21.90;99.90;;;;;;5095322;28;20118;-64
2023/08/04 11:17:18;;;;;;;1.10;0.55;;;21.80;99.90;;;;;;5073315;28;20040;-64
2023/08/04 11:19:50;;;;;;;1.63;0.73;;;22.00;99.90;;;;;;5064166;28;20044;-63
2023/08/04 11:22:24;;;;;;;1.20;0.70;;;22.20;99.90;;;;;;5092347;28;20044;-63
2023/08/04 11:24:55;;;;;;;1.15;0.40;;;22.20;99.90;;;;;;5082974;28;20036;-64
2023/08/04 11:27:27;;;;;;;0.68;0.32;;;22.20;99.90;;;;;;5068559;28;20055;-64
2023/08/04 11:29:59;;;;;;;0.93;0.50;;;22.30;99.90;;;;;;5081532;28;20534;-64
2023/08/04 11:32:31;;;;;;;1.48;0.52;;;22.20;99.90;;;;;;5075041;28;20067;-64
2023/08/04 11:35:03;;;;;;;3.63;0.82;;;22.10;99.90;;;;;;5076191;28;20093;-63
2023/08/04 11:37:35;;;;;;;2.33;0.50;;;21.90;99.90;;;;;;5088427;28;20495;-64
2023/08/04 11:40:18;;;;;;;1.73;0.95;;;21.70;99.90;;;;;;5075202;28;20041;-63
2023/08/04 11:42:50;;;;;;;1.17;0.50;;;21.60;99.90;;;;;;5091167;28;20495;-64
2023/08/04 11:45:22;;;;;;;1.30;0.65;;;21.60;99.90;;;;;;5073546;28;20075;-64
2023/08/04 11:47:56;;;;;;;1.00;0.52;;;21.50;99.90;;;;;;5088667;28;20050;-64
2023/08/04 11:50:28;;;;;;;1.70;0.60;;;21.40;99.90;;;;;;5060179;28;20049;-64
2023/08/04 11:53:00;;;;;;;1.05;0.73;;;21.40;99.90;;;;;;5088181;28;20067;-64
2023/08/04 11:55:34;;;;;;;2.58;0.50;;;21.40;99.90;;;;;;5090906;28;20123;-63
2023/08/04 11:58:01;;;;;;;0.73;0.70;;;21.40;99.90;;;;;;5075214;28;20529;-64
2023/08/04 12:00:37;;;;;;;1.23;0.60;;;21.50;99.90;;;;;;5091853;28;20040;-64
2023/08/04 12:03:05;;;;;;;1.48;0.60;;;21.50;99.90;;;;;;5089773;28;20052;-64
2023/08/04 12:05:38;;;;;;;1.70;0.70;;;21.60;99.90;;;;;;5086250;28;20035;-64
2023/08/04 12:08:12;;;;;;;3.30;0.90;;;21.50;99.90;;;;;;5079614;28;20036;-64
2023/08/04 12:10:44;;;;;;;1.20;0.68;;;21.60;99.90;;;;;;5064770;28;20103;-64
2023/08/04 12:13:34;;;;;;;1.23;0.63;;;21.50;99.90;;;;;;5084941;28;20045;-64
2023/08/04 12:16:06;;;;;;;2.85;0.80;;;21.50;99.90;;;;;;5078404;28;20131;-64
2023/08/04 12:18:41;;;;;;;1.63;0.80;;;21.50;99.90;;;;;;5061552;28;20123;-64
2023/08/04 12:21:14;;;;;;;1.35;0.70;;;21.50;99.90;;;;;;5092831;28;20077;-64
2023/08/04 12:23:50;;;;;;;1.60;0.68;;;21.70;99.90;;;;;;5089996;28;20058;-64
2023/08/04 12:26:22;;;;;;;1.27;0.63;;;21.70;99.90;;;;;;5091960;28;20052;-64
2023/08/04 12:28:53;;;;;;;2.75;0.80;;;21.60;99.90;;;;;;5074842;28;20070;-64
2023/08/04 12:31:25;;;;;;;1.85;0.73;;;21.60;99.90;;;;;;5085815;28;20044;-64
2023/08/04 12:33:58;;;;;;;2.40;0.80;;;21.50;99.90;;;;;;5088104;28;20055;-67
2023/08/04 12:36:24;;;;;;;2.05;0.90;;;21.50;99.90;;;;;;5082460;28;20039;-66
2023/08/04 12:38:56;;;;;;;1.50;0.82;;;21.60;99.90;;;;;;5078537;28;20516;-63
2023/08/04 12:41:28;;;;;;;2.17;0.80;;;21.70;99.90;;;;;;5085402;28;20416;-65
2023/08/04 12:44:00;;;;;;;3.08;1.35;;;21.60;99.90;;;;;;5091591;28;20064;-66
2023/08/04 12:46:32;;;;;;;2.00;0.77;;;21.50;99.90;;;;;;5074194;28;20511;-64
2023/08/04 12:49:04;;;;;;;2.00;0.93;;;21.50;99.90;;;;;;5091101;28;20388;-63
2023/08/04 12:51:36;;;;;;;2.05;1.05;;;21.60;99.90;;;;;;5056553;28;20048;-64
2023/08/04 12:54:03;;;;;;;1.38;0.80;;;21.60;99.90;;;;;;5087798;28;20039;-64
2023/08/04 12:56:34;;;;;;;1.48;0.77;;;21.70;99.90;;;;;;5089767;28;20044;-64
2023/08/04 12:59:01;;;;;;;2.40;0.95;;;21.70;99.90;;;;;;5086608;28;20036;-64
2023/08/04 13:01:33;;;;;;;2.38;0.50;;;21.80;99.90;;;;;;5074955;28;20124;-65
2023/08/04 13:04:05;;;;;;;1.10;0.70;;;21.80;99.90;;;;;;5086201;28;20040;-64
2023/08/04 13:06:37;;;;;;;1.23;0.70;;;21.90;99.90;;;;;;5092214;28;20036;-64
2023/08/04 13:09:09;;;;;;;2.45;0.65;;;22.00;99.90;;;;;;5059508;28;20067;-64
2023/08/04 13:11:41;;;;;;;1.45;0.70;;;22.00;99.90;;;;;;5092043;28;20036;-64